sensor_id;sensor_type;location;lat;lon;timestamp;P1;P2;P0
66195;PMS7003;53000;45.182;5.736;2023-05-20T00:00:56;20.00;19.25;15.25
66195;PMS7003;53000;45.182;5.736;2023-05-20T00:03:21;21.50;20.00;15.00
66195;PMS7003;53000;45.182;5.736;2023-05-20T00:05:47;23.75;19.00;14.00
66195;PMS7003;53000;45.182;5.736;2023-05-20T00:08:12;23.25;20.25;14.25
66195;PMS7003;53000;45.182;5.736;2023-05-20T00:10:38;22.50;20.25;15.25
66195;PMS7003;53000;45.182;5.736;2023-05-20T00:13:03;19.75;19.50;15.00
66195;PMS7003;53000;45.182;5.736;2023-05-20T00:15:30;19.25;18.25;13.75
66195;PMS7003;53000;45.182;5.736;2023-05-20T00:17:56;19.25;18.25;14.25
66195;PMS7003;53000;45.182;5.736;2023-05-20T00:20:21;20.00;19.00;15.00
66195;PMS7003;53000;45.182;5.736;2023-05-20T00:22:47;19.00;18.50;15.50
66195;PMS7003;53000;45.182;5.736;2023-05-20T00:25:12;18.25;17.25;14.50
66195;PMS7003;53000;45.182;5.736;2023-05-20T00:27:40;16.25;15.50;13.00
66195;PMS7003;53000;45.182;5.736;2023-05-20T00:30:06;21.00;20.25;15.50
66195;PMS7003;53000;45.182;5.736;2023-05-20T00:32:32;20.75;20.00;15.00
66195;PMS7003;53000;45.182;5.736;2023-05-20T00:34:58;19.00;18.00;14.50
66195;PMS7003;53000;45.182;5.736;2023-05-20T00:37:24;25.25;23.00;16.75
66195;PMS7003;53000;45.182;5.736;2023-05-20T00:39:49;21.50;19.00;14.00
66195;PMS7003;53000;45.182;5.736;2023-05-20T00:42:21;20.00;19.00;15.00
66195;PMS7003;53000;45.182;5.736;2023-05-20T00:44:47;21.50;20.50;15.25
66195;PMS7003;53000;45.182;5.736;2023-05-20T00:47:16;19.25;18.50;14.25
66195;PMS7003;53000;45.182;5.736;2023-05-20T00:49:46;18.50;18.50;16.00
66195;PMS7003;53000;45.182;5.736;2023-05-20T00:52:13;19.00;19.00;15.00
66195;PMS7003;53000;45.182;5.736;2023-05-20T00:54:40;21.00;18.00;14.50
66195;PMS7003;53000;45.182;5.736;2023-05-20T00:57:06;22.25;19.50;14.00
66195;PMS7003;53000;45.182;5.736;2023-05-20T00:59:33;21.50;19.50;13.50
66195;PMS7003;53000;45.182;5.736;2023-05-20T01:02:01;24.50;20.25;16.00
66195;PMS7003;53000;45.182;5.736;2023-05-20T01:04:30;23.00;19.75;14.25
66195;PMS7003;53000;45.182;5.736;2023-05-20T01:06:56;23.00;20.00;16.50
66195;PMS7003;53000;45.182;5.736;2023-05-20T01:09:26;19.75;18.75;15.00
66195;PMS7003;53000;45.182;5.736;2023-05-20T01:11:58;24.25;22.00;16.00
66195;PMS7003;53000;45.182;5.736;2023-05-20T01:14:49;23.00;22.75;17.50
66195;PMS7003;53000;45.182;5.736;2023-05-20T01:17:30;23.00;20.75;15.75
66195;PMS7003;53000;45.182;5.736;2023-05-20T01:19:57;25.00;24.50;18.00
66195;PMS7003;53000;45.182;5.736;2023-05-20T01:22:28;23.75;23.00;15.75
66195;PMS7003;53000;45.182;5.736;2023-05-20T01:24:53;28.00;27.50;17.50
66195;PMS7003;53000;45.182;5.736;2023-05-20T01:27:20;26.75;21.25;16.25
66195;PMS7003;53000;45.182;5.736;2023-05-20T01:29:47;22.00;21.25;16.50
66195;PMS7003;53000;45.182;5.736;2023-05-20T01:32:21;25.00;23.00;17.00
66195;PMS7003;53000;45.182;5.736;2023-05-20T01:34:51;23.25;21.75;17.00
66195;PMS7003;53000;45.182;5.736;2023-05-20T01:37:18;23.75;21.25;16.50
66195;PMS7003;53000;45.182;5.736;2023-05-20T01:39:44;28.25;25.50;17.75
66195;PMS7003;53000;45.182;5.736;2023-05-20T01:42:11;24.00;21.50;15.25
66195;PMS7003;53000;45.182;5.736;2023-05-20T01:44:39;22.25;20.50;16.00
66195;PMS7003;53000;45.182;5.736;2023-05-20T01:47:04;20.00;19.50;14.00
66195;PMS7003;53000;45.182;5.736;2023-05-20T01:49:30;20.50;18.75;14.00
66195;PMS7003;53000;45.182;5.736;2023-05-20T01:51:55;21.25;20.50;15.00
66195;PMS7003;53000;45.182;5.736;2023-05-20T01:54:21;21.75;21.00;15.75
66195;PMS7003;53000;45.182;5.736;2023-05-20T01:56:47;22.00;18.50;13.25
66195;PMS7003;53000;45.182;5.736;2023-05-20T01:59:14;26.25;23.00;17.75
66195;PMS7003;53000;45.182;5.736;2023-05-20T02:01:39;24.75;22.50;17.00
66195;PMS7003;53000;45.182;5.736;2023-05-20T02:04:05;24.50;21.25;16.00
66195;PMS7003;53000;45.182;5.736;2023-05-20T02:06:30;24.25;20.25;15.00
66195;PMS7003;53000;45.182;5.736;2023-05-20T02:08:55;23.75;23.75;17.00
66195;PMS7003;53000;45.182;5.736;2023-05-20T02:11:21;17.50;17.50;14.25
66195;PMS7003;53000;45.182;5.736;2023-05-20T02:13:46;22.50;22.50;16.00
66195;PMS7003;53000;45.182;5.736;2023-05-20T02:16:12;23.50;22.75;16.50
66195;PMS7003;53000;45.182;5.736;2023-05-20T02:18:37;22.75;22.75;17.00
66195;PMS7003;53000;45.182;5.736;2023-05-20T02:21:03;21.75;19.75;16.00
66195;PMS7003;53000;45.182;5.736;2023-05-20T02:23:32;23.00;20.00;15.50
66195;PMS7003;53000;45.182;5.736;2023-05-20T02:25:58;21.50;21.50;17.00
66195;PMS7003;53000;45.182;5.736;2023-05-20T02:28:24;22.50;21.50;15.25
66195;PMS7003;53000;45.182;5.736;2023-05-20T02:30:49;20.75;20.25;15.50
66195;PMS7003;53000;45.182;5.736;2023-05-20T02:33:17;18.50;18.25;15.00
66195;PMS7003;53000;45.182;5.736;2023-05-20T02:35:44;22.00;21.25;15.25
66195;PMS7003;53000;45.182;5.736;2023-05-20T02:38:10;23.25;22.25;15.50
66195;PMS7003;53000;45.182;5.736;2023-05-20T02:40:36;23.75;20.75;16.25
66195;PMS7003;53000;45.182;5.736;2023-05-20T02:43:01;17.00;17.00;13.50
66195;PMS7003;53000;45.182;5.736;2023-05-20T02:45:27;18.25;18.00;14.00
66195;PMS7003;53000;45.182;5.736;2023-05-20T02:47:52;21.75;20.00;13.00
66195;PMS7003;53000;45.182;5.736;2023-05-20T02:50:21;20.00;17.75;15.50
66195;PMS7003;53000;45.182;5.736;2023-05-20T02:52:46;22.75;19.25;14.00
66195;PMS7003;53000;45.182;5.736;2023-05-20T02:55:11;22.50;22.25;15.50
66195;PMS7003;53000;45.182;5.736;2023-05-20T02:57:37;25.50;22.00;14.50
66195;PMS7003;53000;45.182;5.736;2023-05-20T03:00:03;21.25;21.25;16.00
66195;PMS7003;53000;45.182;5.736;2023-05-20T03:02:32;22.50;21.00;15.50
66195;PMS7003;53000;45.182;5.736;2023-05-20T03:04:58;18.75;16.50;12.00
66195;PMS7003;53000;45.182;5.736;2023-05-20T03:07:23;22.50;18.75;14.00
66195;PMS7003;53000;45.182;5.736;2023-05-20T03:09:49;26.25;21.00;15.00
66195;PMS7003;53000;45.182;5.736;2023-05-20T03:12:15;22.75;22.00;17.25
66195;PMS7003;53000;45.182;5.736;2023-05-20T03:14:40;23.50;23.00;15.75
66195;PMS7003;53000;45.182;5.736;2023-05-20T03:17:05;20.75;19.75;16.00
66195;PMS7003;53000;45.182;5.736;2023-05-20T03:19:32;21.25;20.00;15.50
66195;PMS7003;53000;45.182;5.736;2023-05-20T03:21:58;18.00;16.50;14.00
66195;PMS7003;53000;45.182;5.736;2023-05-20T03:24:24;21.50;20.00;15.00
66195;PMS7003;53000;45.182;5.736;2023-05-20T03:26:50;22.75;20.75;14.25
66195;PMS7003;53000;45.182;5.736;2023-05-20T03:29:15;27.75;22.75;17.00
66195;PMS7003;53000;45.182;5.736;2023-05-20T03:31:41;20.75;19.50;15.50
66195;PMS7003;53000;45.182;5.736;2023-05-20T03:34:07;20.50;18.25;14.50
66195;PMS7003;53000;45.182;5.736;2023-05-20T03:36:32;20.00;18.00;14.75
66195;PMS7003;53000;45.182;5.736;2023-05-20T03:38:57;21.75;20.25;15.50
66195;PMS7003;53000;45.182;5.736;2023-05-20T03:41:23;24.00;22.75;16.50
66195;PMS7003;53000;45.182;5.736;2023-05-20T03:43:48;20.00;20.00;15.25
66195;PMS7003;53000;45.182;5.736;2023-05-20T03:46:13;21.25;21.00;15.75
66195;PMS7003;53000;45.182;5.736;2023-05-20T03:48:39;17.75;17.75;14.25
66195;PMS7003;53000;45.182;5.736;2023-05-20T03:51:05;21.25;19.50;14.00
66195;PMS7003;53000;45.182;5.736;2023-05-20T03:53:30;18.50;18.50;15.00
66195;PMS7003;53000;45.182;5.736;2023-05-20T03:55:55;21.75;20.75;15.00
66195;PMS7003;53000;45.182;5.736;2023-05-20T03:58:21;21.75;20.50;15.00
66195;PMS7003;53000;45.182;5.736;2023-05-20T04:00:46;21.75;21.25;15.75
66195;PMS7003;53000;45.182;5.736;2023-05-20T04:03:13;20.75;20.75;14.50
66195;PMS7003;53000;45.182;5.736;2023-05-20T04:05:38;18.50;17.50;14.25
66195;PMS7003;53000;45.182;5.736;2023-05-20T04:08:03;18.75;18.25;14.00
66195;PMS7003;53000;45.182;5.736;2023-05-20T04:10:29;20.00;18.00;14.00
66195;PMS7003;53000;45.182;5.736;2023-05-20T04:13:01;19.50;18.25;13.00
66195;PMS7003;53000;45.182;5.736;2023-05-20T04:15:26;19.75;19.00;14.25
66195;PMS7003;53000;45.182;5.736;2023-05-20T04:17:53;22.25;21.75;13.50
66195;PMS7003;53000;45.182;5.736;2023-05-20T04:20:19;19.50;17.50;13.00
66195;PMS7003;53000;45.182;5.736;2023-05-20T04:22:45;19.75;18.00;13.50
66195;PMS7003;53000;45.182;5.736;2023-05-20T04:25:11;19.00;16.75;13.75
66195;PMS7003;53000;45.182;5.736;2023-05-20T04:27:37;20.25;18.00;14.50
66195;PMS7003;53000;45.182;5.736;2023-05-20T04:30:03;19.00;18.00;13.50
66195;PMS7003;53000;45.182;5.736;2023-05-20T04:32:30;15.75;15.75;12.25
66195;PMS7003;53000;45.182;5.736;2023-05-20T04:34:56;17.00;15.75;13.00
66195;PMS7003;53000;45.182;5.736;2023-05-20T04:37:21;18.50;17.00;13.00
66195;PMS7003;53000;45.182;5.736;2023-05-20T04:39:46;19.25;16.50;13.25
66195;PMS7003;53000;45.182;5.736;2023-05-20T04:42:13;20.25;17.75;14.25
66195;PMS7003;53000;45.182;5.736;2023-05-20T04:44:41;21.75;19.25;16.00
66195;PMS7003;53000;45.182;5.736;2023-05-20T04:47:07;18.00;17.75;13.00
66195;PMS7003;53000;45.182;5.736;2023-05-20T04:49:32;22.50;18.50;13.25
66195;PMS7003;53000;45.182;5.736;2023-05-20T04:51:58;16.00;16.00;13.25
66195;PMS7003;53000;45.182;5.736;2023-05-20T04:54:24;18.00;15.25;12.00
66195;PMS7003;53000;45.182;5.736;2023-05-20T04:56:50;18.00;17.25;13.75
66195;PMS7003;53000;45.182;5.736;2023-05-20T04:59:15;18.50;18.50;11.75
66195;PMS7003;53000;45.182;5.736;2023-05-20T05:01:41;19.25;18.25;13.75
66195;PMS7003;53000;45.182;5.736;2023-05-20T05:04:06;18.75;17.00;13.50
66195;PMS7003;53000;45.182;5.736;2023-05-20T05:06:31;18.25;17.50;14.00
66195;PMS7003;53000;45.182;5.736;2023-05-20T05:08:57;18.00;17.50;13.00
66195;PMS7003;53000;45.182;5.736;2023-05-20T05:11:22;21.50;20.75;15.00
66195;PMS7003;53000;45.182;5.736;2023-05-20T05:13:48;20.25;18.25;13.25
66195;PMS7003;53000;45.182;5.736;2023-05-20T05:16:13;17.67;16.67;12.33
66195;PMS7003;53000;45.182;5.736;2023-05-20T05:18:38;18.50;18.25;14.00
66195;PMS7003;53000;45.182;5.736;2023-05-20T05:21:04;14.75;13.75;12.00
66195;PMS7003;53000;45.182;5.736;2023-05-20T05:23:30;18.25;16.75;12.50
66195;PMS7003;53000;45.182;5.736;2023-05-20T05:25:56;20.00;18.50;13.25
66195;PMS7003;53000;45.182;5.736;2023-05-20T05:28:23;19.25;17.25;12.25
66195;PMS7003;53000;45.182;5.736;2023-05-20T05:30:48;18.00;15.00;14.00
66195;PMS7003;53000;45.182;5.736;2023-05-20T05:33:14;18.50;17.25;13.00
66195;PMS7003;53000;45.182;5.736;2023-05-20T05:35:40;17.25;17.00;12.25
66195;PMS7003;53000;45.182;5.736;2023-05-20T05:38:06;20.75;16.50;11.75
66195;PMS7003;53000;45.182;5.736;2023-05-20T05:40:32;16.50;16.00;12.75
66195;PMS7003;53000;45.182;5.736;2023-05-20T05:42:58;20.00;18.00;13.50
66195;PMS7003;53000;45.182;5.736;2023-05-20T05:45:23;19.00;16.50;12.75
66195;PMS7003;53000;45.182;5.736;2023-05-20T05:47:48;18.75;18.00;13.50
66195;PMS7003;53000;45.182;5.736;2023-05-20T05:50:14;20.00;17.00;14.00
66195;PMS7003;53000;45.182;5.736;2023-05-20T05:52:39;15.75;15.50;11.00
66195;PMS7003;53000;45.182;5.736;2023-05-20T05:55:05;17.00;15.75;12.00
66195;PMS7003;53000;45.182;5.736;2023-05-20T05:57:31;16.00;16.00;13.00
66195;PMS7003;53000;45.182;5.736;2023-05-20T05:59:56;17.25;17.25;13.00
66195;PMS7003;53000;45.182;5.736;2023-05-20T06:02:22;18.75;18.25;14.25
66195;PMS7003;53000;45.182;5.736;2023-05-20T06:04:47;18.50;16.00;12.75
66195;PMS7003;53000;45.182;5.736;2023-05-20T06:07:12;17.00;16.50;12.50
66195;PMS7003;53000;45.182;5.736;2023-05-20T06:09:38;17.75;15.50;12.75
66195;PMS7003;53000;45.182;5.736;2023-05-20T06:12:03;15.25;14.50;11.00
66195;PMS7003;53000;45.182;5.736;2023-05-20T06:14:29;16.50;15.50;12.00
66195;PMS7003;53000;45.182;5.736;2023-05-20T06:16:56;13.75;13.50;11.25
66195;PMS7003;53000;45.182;5.736;2023-05-20T06:19:21;16.75;15.25;12.50
66195;PMS7003;53000;45.182;5.736;2023-05-20T06:21:47;16.00;15.00;12.50
66195;PMS7003;53000;45.182;5.736;2023-05-20T06:24:12;17.25;15.25;11.25
66195;PMS7003;53000;45.182;5.736;2023-05-20T06:26:37;20.75;18.50;14.00
66195;PMS7003;53000;45.182;5.736;2023-05-20T06:29:02;17.75;17.00;13.50
66195;PMS7003;53000;45.182;5.736;2023-05-20T06:31:28;17.25;14.75;11.00
66195;PMS7003;53000;45.182;5.736;2023-05-20T06:33:54;19.50;18.25;13.75
66195;PMS7003;53000;45.182;5.736;2023-05-20T06:36:19;17.33;16.00;13.00
66195;PMS7003;53000;45.182;5.736;2023-05-20T06:38:45;18.25;16.75;12.50
66195;PMS7003;53000;45.182;5.736;2023-05-20T06:41:10;18.25;17.00;13.00
66195;PMS7003;53000;45.182;5.736;2023-05-20T06:43:35;18.50;17.75;14.25
66195;PMS7003;53000;45.182;5.736;2023-05-20T06:46:01;17.00;17.00;13.25
66195;PMS7003;53000;45.182;5.736;2023-05-20T06:48:26;19.25;17.50;14.25
66195;PMS7003;53000;45.182;5.736;2023-05-20T06:50:51;16.00;13.50;10.75
66195;PMS7003;53000;45.182;5.736;2023-05-20T06:53:17;17.25;17.25;12.75
66195;PMS7003;53000;45.182;5.736;2023-05-20T06:55:42;14.75;13.75;11.00
66195;PMS7003;53000;45.182;5.736;2023-05-20T06:58:07;17.75;17.25;14.00
66195;PMS7003;53000;45.182;5.736;2023-05-20T07:00:33;20.25;17.25;13.75
66195;PMS7003;53000;45.182;5.736;2023-05-20T07:02:58;16.25;16.25;12.50
66195;PMS7003;53000;45.182;5.736;2023-05-20T07:05:23;19.75;19.50;13.75
66195;PMS7003;53000;45.182;5.736;2023-05-20T07:07:49;18.25;17.00;13.50
66195;PMS7003;53000;45.182;5.736;2023-05-20T07:10:15;15.00;15.00;12.75
66195;PMS7003;53000;45.182;5.736;2023-05-20T07:12:40;20.50;18.50;12.00
66195;PMS7003;53000;45.182;5.736;2023-05-20T07:15:06;21.50;20.25;13.75
66195;PMS7003;53000;45.182;5.736;2023-05-20T07:17:32;20.25;17.50;14.00
66195;PMS7003;53000;45.182;5.736;2023-05-20T07:19:57;18.75;16.00;13.00
66195;PMS7003;53000;45.182;5.736;2023-05-20T07:22:23;19.50;16.50;12.75
66195;PMS7003;53000;45.182;5.736;2023-05-20T07:24:48;18.75;16.75;13.50
66195;PMS7003;53000;45.182;5.736;2023-05-20T07:27:14;22.00;18.25;14.25
66195;PMS7003;53000;45.182;5.736;2023-05-20T07:29:39;19.75;18.75;13.75
66195;PMS7003;53000;45.182;5.736;2023-05-20T07:32:04;22.75;22.25;16.25
66195;PMS7003;53000;45.182;5.736;2023-05-20T07:34:30;23.75;22.00;17.75
66195;PMS7003;53000;45.182;5.736;2023-05-20T07:36:56;20.25;19.00;14.25
66195;PMS7003;53000;45.182;5.736;2023-05-20T07:39:22;23.50;20.50;14.50
66195;PMS7003;53000;45.182;5.736;2023-05-20T07:41:48;18.00;18.00;13.50
66195;PMS7003;53000;45.182;5.736;2023-05-20T07:44:13;25.50;22.00;17.50
66195;PMS7003;53000;45.182;5.736;2023-05-20T07:46:39;22.00;20.00;16.00
66195;PMS7003;53000;45.182;5.736;2023-05-20T07:49:05;23.25;21.00;16.25
66195;PMS7003;53000;45.182;5.736;2023-05-20T07:51:31;21.00;19.50;14.00
66195;PMS7003;53000;45.182;5.736;2023-05-20T07:53:57;22.75;21.25;16.25
66195;PMS7003;53000;45.182;5.736;2023-05-20T07:56:22;21.00;20.00;15.00
66195;PMS7003;53000;45.182;5.736;2023-05-20T07:58:52;21.50;20.50;14.50
66195;PMS7003;53000;45.182;5.736;2023-05-20T08:01:18;26.00;24.00;16.75
66195;PMS7003;53000;45.182;5.736;2023-05-20T08:03:44;21.00;21.00;16.50
66195;PMS7003;53000;45.182;5.736;2023-05-20T08:06:10;24.00;22.00;14.25
66195;PMS7003;53000;45.182;5.736;2023-05-20T08:08:35;22.75;22.50;16.25
66195;PMS7003;53000;45.182;5.736;2023-05-20T08:11:00;28.75;23.25;16.50
66195;PMS7003;53000;45.182;5.736;2023-05-20T08:13:26;21.75;19.75;14.50
66195;PMS7003;53000;45.182;5.736;2023-05-20T08:15:54;24.75;20.25;15.50
66195;PMS7003;53000;45.182;5.736;2023-05-20T08:18:20;21.25;20.50;15.75
66195;PMS7003;53000;45.182;5.736;2023-05-20T08:20:46;22.50;21.25;16.25
66195;PMS7003;53000;45.182;5.736;2023-05-20T08:23:12;22.25;21.50;16.00
66195;PMS7003;53000;45.182;5.736;2023-05-20T08:25:37;25.00;20.50;15.50
66195;PMS7003;53000;45.182;5.736;2023-05-20T08:28:03;22.75;22.25;17.75
66195;PMS7003;53000;45.182;5.736;2023-05-20T08:30:30;23.50;22.75;14.00
66195;PMS7003;53000;45.182;5.736;2023-05-20T08:32:59;24.50;21.75;17.00
66195;PMS7003;53000;45.182;5.736;2023-05-20T08:35:25;23.50;21.50;16.00
66195;PMS7003;53000;45.182;5.736;2023-05-20T08:37:51;21.75;21.25;15.75
66195;PMS7003;53000;45.182;5.736;2023-05-20T08:40:19;20.75;18.25;15.25
66195;PMS7003;53000;45.182;5.736;2023-05-20T08:42:46;27.00;25.75;18.50
66195;PMS7003;53000;45.182;5.736;2023-05-20T08:45:14;20.50;18.75;14.50
66195;PMS7003;53000;45.182;5.736;2023-05-20T08:47:42;19.00;19.00;14.00
66195;PMS7003;53000;45.182;5.736;2023-05-20T08:50:08;22.75;22.75;15.75
66195;PMS7003;53000;45.182;5.736;2023-05-20T08:52:36;21.75;21.75;16.75
66195;PMS7003;53000;45.182;5.736;2023-05-20T08:55:06;21.00;19.50;15.25
66195;PMS7003;53000;45.182;5.736;2023-05-20T08:57:34;25.00;21.50;16.25
66195;PMS7003;53000;45.182;5.736;2023-05-20T09:00:01;21.00;21.00;16.00
66195;PMS7003;53000;45.182;5.736;2023-05-20T09:02:35;24.50;19.00;14.25
66195;PMS7003;53000;45.182;5.736;2023-05-20T09:05:02;22.50;21.25;15.00
66195;PMS7003;53000;45.182;5.736;2023-05-20T09:07:28;23.00;20.50;15.00
66195;PMS7003;53000;45.182;5.736;2023-05-20T09:09:54;23.25;21.25;15.75
66195;PMS7003;53000;45.182;5.736;2023-05-20T09:12:20;26.50;23.00;16.25
66195;PMS7003;53000;45.182;5.736;2023-05-20T09:14:46;23.25;22.00;17.25
66195;PMS7003;53000;45.182;5.736;2023-05-20T09:17:11;25.00;22.50;16.50
66195;PMS7003;53000;45.182;5.736;2023-05-20T09:19:37;21.75;21.25;15.50
66195;PMS7003;53000;45.182;5.736;2023-05-20T09:22:02;21.50;21.50;18.00
66195;PMS7003;53000;45.182;5.736;2023-05-20T09:24:29;26.00;25.00;19.25
66195;PMS7003;53000;45.182;5.736;2023-05-20T09:26:54;22.75;19.00;16.75
66195;PMS7003;53000;45.182;5.736;2023-05-20T09:29:20;19.25;16.25;13.00
66195;PMS7003;53000;45.182;5.736;2023-05-20T09:31:46;26.50;24.75;18.00
66195;PMS7003;53000;45.182;5.736;2023-05-20T09:34:12;24.00;22.75;15.00
66195;PMS7003;53000;45.182;5.736;2023-05-20T09:36:38;28.50;27.25;19.00
66195;PMS7003;53000;45.182;5.736;2023-05-20T09:39:04;20.50;20.00;14.75
66195;PMS7003;53000;45.182;5.736;2023-05-20T09:44:30;22.50;21.75;15.50
66195;PMS7003;53000;45.182;5.736;2023-05-20T09:46:57;22.75;20.50;16.50
66195;PMS7003;53000;45.182;5.736;2023-05-20T09:49:25;24.75;24.25;17.00
66195;PMS7003;53000;45.182;5.736;2023-05-20T09:51:52;26.75;25.50;18.50
66195;PMS7003;53000;45.182;5.736;2023-05-20T09:54:18;22.00;21.50;16.75
66195;PMS7003;53000;45.182;5.736;2023-05-20T09:56:45;25.25;24.50;17.00
66195;PMS7003;53000;45.182;5.736;2023-05-20T09:59:11;22.75;21.50;16.25
66195;PMS7003;53000;45.182;5.736;2023-05-20T10:01:39;25.50;24.00;17.25
66195;PMS7003;53000;45.182;5.736;2023-05-20T10:04:04;25.00;22.25;17.25
66195;PMS7003;53000;45.182;5.736;2023-05-20T10:15:08;22.75;21.25;17.00
66195;PMS7003;53000;45.182;5.736;2023-05-20T10:17:43;25.50;24.25;17.50
66195;PMS7003;53000;45.182;5.736;2023-05-20T10:20:18;24.25;22.50;17.50
66195;PMS7003;53000;45.182;5.736;2023-05-20T10:22:43;25.50;23.75;19.00
66195;PMS7003;53000;45.182;5.736;2023-05-20T10:25:24;26.00;25.50;19.25
66195;PMS7003;53000;45.182;5.736;2023-05-20T10:27:51;27.00;25.00;16.50
66195;PMS7003;53000;45.182;5.736;2023-05-20T10:30:17;22.25;21.25;16.50
66195;PMS7003;53000;45.182;5.736;2023-05-20T10:32:51;22.75;22.25;15.75
66195;PMS7003;53000;45.182;5.736;2023-05-20T10:35:20;23.75;20.50;14.75
66195;PMS7003;53000;45.182;5.736;2023-05-20T10:37:50;24.00;23.00;18.25
66195;PMS7003;53000;45.182;5.736;2023-05-20T10:40:17;18.75;18.50;12.75
66195;PMS7003;53000;45.182;5.736;2023-05-20T10:42:43;18.75;18.25;13.25
66195;PMS7003;53000;45.182;5.736;2023-05-20T10:45:10;19.50;17.50;13.50
66195;PMS7003;53000;45.182;5.736;2023-05-20T10:47:35;17.25;16.25;13.00
66195;PMS7003;53000;45.182;5.736;2023-05-20T10:50:01;17.00;16.50;14.50
66195;PMS7003;53000;45.182;5.736;2023-05-20T10:52:31;21.75;18.50;14.00
66195;PMS7003;53000;45.182;5.736;2023-05-20T10:54:59;19.00;17.75;13.75
66195;PMS7003;53000;45.182;5.736;2023-05-20T10:57:25;23.25;21.00;14.75
66195;PMS7003;53000;45.182;5.736;2023-05-20T10:59:51;21.75;19.75;15.25
66195;PMS7003;53000;45.182;5.736;2023-05-20T11:02:17;21.25;19.75;15.00
66195;PMS7003;53000;45.182;5.736;2023-05-20T11:04:44;18.75;17.25;13.50
66195;PMS7003;53000;45.182;5.736;2023-05-20T11:07:10;21.75;18.75;14.50
66195;PMS7003;53000;45.182;5.736;2023-05-20T11:09:36;21.00;18.75;15.50
66195;PMS7003;53000;45.182;5.736;2023-05-20T11:12:01;18.25;18.25;12.75
66195;PMS7003;53000;45.182;5.736;2023-05-20T11:14:30;23.25;18.50;14.00
66195;PMS7003;53000;45.182;5.736;2023-05-20T11:16:56;18.50;17.75;12.75
66195;PMS7003;53000;45.182;5.736;2023-05-20T11:19:22;17.25;16.50;13.00
66195;PMS7003;53000;45.182;5.736;2023-05-20T11:21:48;18.75;17.25;13.50
66195;PMS7003;53000;45.182;5.736;2023-05-20T11:24:20;17.75;16.50;11.75
66195;PMS7003;53000;45.182;5.736;2023-05-20T11:26:47;14.75;14.75;11.75
66195;PMS7003;53000;45.182;5.736;2023-05-20T11:29:12;19.75;18.50;13.75
66195;PMS7003;53000;45.182;5.736;2023-05-20T11:31:38;18.75;15.50;11.00
66195;PMS7003;53000;45.182;5.736;2023-05-20T11:34:03;15.50;14.50;11.75
66195;PMS7003;53000;45.182;5.736;2023-05-20T11:36:29;12.75;11.25;9.25
66195;PMS7003;53000;45.182;5.736;2023-05-20T11:38:58;13.25;11.75;10.00
66195;PMS7003;53000;45.182;5.736;2023-05-20T11:41:27;12.25;12.25;9.25
66195;PMS7003;53000;45.182;5.736;2023-05-20T11:43:58;15.00;14.75;12.00
66195;PMS7003;53000;45.182;5.736;2023-05-20T11:46:25;16.75;15.25;11.75
66195;PMS7003;53000;45.182;5.736;2023-05-20T11:48:53;17.75;16.75;12.00
66195;PMS7003;53000;45.182;5.736;2023-05-20T11:51:25;18.50;15.50;13.00
66195;PMS7003;53000;45.182;5.736;2023-05-20T11:53:51;14.75;14.75;10.00
66195;PMS7003;53000;45.182;5.736;2023-05-20T11:56:18;13.00;12.75;10.00
66195;PMS7003;53000;45.182;5.736;2023-05-20T11:58:45;16.00;15.00;12.50
66195;PMS7003;53000;45.182;5.736;2023-05-20T12:01:10;12.25;12.25;9.50
66195;PMS7003;53000;45.182;5.736;2023-05-20T12:03:36;16.25;16.25;13.00
66195;PMS7003;53000;45.182;5.736;2023-05-20T12:06:02;11.75;11.00;9.00
66195;PMS7003;53000;45.182;5.736;2023-05-20T12:08:28;15.75;15.75;13.00
66195;PMS7003;53000;45.182;5.736;2023-05-20T12:10:53;13.00;12.25;9.75
66195;PMS7003;53000;45.182;5.736;2023-05-20T12:13:19;13.75;13.75;10.75
66195;PMS7003;53000;45.182;5.736;2023-05-20T12:15:44;17.25;15.50;13.00
66195;PMS7003;53000;45.182;5.736;2023-05-20T12:18:09;14.00;13.50;9.75
66195;PMS7003;53000;45.182;5.736;2023-05-20T12:20:35;15.50;15.00;12.00
66195;PMS7003;53000;45.182;5.736;2023-05-20T12:23:01;15.50;14.25;12.50
66195;PMS7003;53000;45.182;5.736;2023-05-20T12:25:26;14.75;13.50;11.00
66195;PMS7003;53000;45.182;5.736;2023-05-20T12:27:53;14.75;13.25;10.00
66195;PMS7003;53000;45.182;5.736;2023-05-20T12:30:20;18.25;17.50;12.75
66195;PMS7003;53000;45.182;5.736;2023-05-20T12:32:47;15.50;13.50;11.50
66195;PMS7003;53000;45.182;5.736;2023-05-20T12:35:18;18.00;16.00;11.75
66195;PMS7003;53000;45.182;5.736;2023-05-20T12:37:50;19.50;17.00;13.00
66195;PMS7003;53000;45.182;5.736;2023-05-20T12:40:15;16.00;15.25;12.50
66195;PMS7003;53000;45.182;5.736;2023-05-20T12:42:40;18.25;16.00;11.75
66195;PMS7003;53000;45.182;5.736;2023-05-20T12:45:07;13.25;12.50;11.00
66195;PMS7003;53000;45.182;5.736;2023-05-20T12:47:33;14.50;14.50;12.25
66195;PMS7003;53000;45.182;5.736;2023-05-20T12:49:59;17.25;16.00;13.00
66195;PMS7003;53000;45.182;5.736;2023-05-20T12:52:25;16.00;15.75;13.00
66195;PMS7003;53000;45.182;5.736;2023-05-20T12:54:55;14.25;13.75;11.25
66195;PMS7003;53000;45.182;5.736;2023-05-20T12:57:21;16.50;16.50;13.75
66195;PMS7003;53000;45.182;5.736;2023-05-20T12:59:47;16.25;15.50;12.75
66195;PMS7003;53000;45.182;5.736;2023-05-20T13:02:13;17.75;16.00;13.00
66195;PMS7003;53000;45.182;5.736;2023-05-20T13:04:39;19.00;18.75;14.00
66195;PMS7003;53000;45.182;5.736;2023-05-20T13:07:04;16.00;16.00;12.75
66195;PMS7003;53000;45.182;5.736;2023-05-20T13:09:29;21.00;18.00;13.25
66195;PMS7003;53000;45.182;5.736;2023-05-20T13:11:56;21.25;18.75;14.00
66195;PMS7003;53000;45.182;5.736;2023-05-20T13:14:21;19.25;17.75;14.25
66195;PMS7003;53000;45.182;5.736;2023-05-20T13:16:48;19.75;17.25;13.25
66195;PMS7003;53000;45.182;5.736;2023-05-20T13:19:18;18.50;16.00;12.50
66195;PMS7003;53000;45.182;5.736;2023-05-20T13:21:44;19.25;19.00;14.75
66195;PMS7003;53000;45.182;5.736;2023-05-20T13:24:09;17.00;16.25;12.00
66195;PMS7003;53000;45.182;5.736;2023-05-20T13:26:35;18.25;16.00;12.75
66195;PMS7003;53000;45.182;5.736;2023-05-20T13:29:00;17.75;17.75;15.00
66195;PMS7003;53000;45.182;5.736;2023-05-20T13:31:26;20.00;17.00;13.75
66195;PMS7003;53000;45.182;5.736;2023-05-20T13:33:51;15.25;14.50;11.50
66195;PMS7003;53000;45.182;5.736;2023-05-20T13:36:17;17.00;17.00;13.75
66195;PMS7003;53000;45.182;5.736;2023-05-20T13:38:43;17.50;17.50;12.75
66195;PMS7003;53000;45.182;5.736;2023-05-20T13:41:08;19.00;17.75;13.00
66195;PMS7003;53000;45.182;5.736;2023-05-20T13:43:33;19.00;17.75;14.25
66195;PMS7003;53000;45.182;5.736;2023-05-20T13:45:59;19.75;19.75;15.00
66195;PMS7003;53000;45.182;5.736;2023-05-20T13:48:24;18.75;17.00;14.00
66195;PMS7003;53000;45.182;5.736;2023-05-20T13:50:50;18.25;16.25;11.75
66195;PMS7003;53000;45.182;5.736;2023-05-20T13:53:15;15.25;15.00;12.00